Time;durP1;ratioP1;P1;durP2;ratioP2;P2;SDS_P1;SDS_P2;PMS_P1;PMS_P2;Temp;Humidity;BMP_temperature;BMP_pressure;BME280_temperature;BME280_humidity;BME280_pressure;Samples;Min_cycle;Max_cycle;Signal;HPM_P1;HPM_P2
2021/12/28 00:01:36;;;;;;;69.37;41.80;;;;;;;7.58;100.00;96528.13;5089114;28;20204;-56
2021/12/28 00:04:05;;;;;;;67.07;39.07;;;;;;;7.54;100.00;96520.56;5087479;28;20200;-57
2021/12/28 00:06:34;;;;;;;61.63;37.90;;;;;;;7.62;100.00;96526.25;5086199;28;20231;-56
2021/12/28 00:09:01;;;;;;;61.20;38.47;;;;;;;7.59;100.00;96524.63;5088915;28;20674;-57
2021/12/28 00:11:28;;;;;;;74.43;42.00;;;;;;;7.56;100.00;96514.47;5070128;28;20635;-57
2021/12/28 00:14:01;;;;;;;72.43;42.73;;;;;;;7.67;100.00;96527.72;5077642;28;20809;-56
2021/12/28 00:18:59;;;;;;;86.40;46.43;;;;;;;7.50;100.00;96526.75;5071823;28;20669;-60
2021/12/28 00:21:27;;;;;;;88.47;45.50;;;;;;;7.50;100.00;96521.59;5088856;28;20714;-56
2021/12/28 00:23:54;;;;;;;78.67;43.43;;;;;;;7.50;100.00;96529.34;5086469;28;20767;-64
2021/12/28 00:26:24;;;;;;;79.50;43.33;;;;;;;7.47;100.00;96532.88;5087036;28;20219;-61
2021/12/28 00:28:51;;;;;;;86.30;46.80;;;;;;;7.42;100.00;96537.38;5072884;28;20875;-63
2021/12/28 00:31:21;;;;;;;94.13;47.80;;;;;;;7.49;100.00;96543.09;5072101;28;20204;-56
2021/12/28 00:33:50;;;;;;;83.37;46.83;;;;;;;7.41;100.00;96535.69;5066373;28;20573;-60
2021/12/28 00:36:17;;;;;;;83.20;43.53;;;;;;;7.30;100.00;96545.59;5077694;28;20685;-57
2021/12/28 00:38:44;;;;;;;78.77;44.70;;;;;;;7.27;100.00;96538.00;5088622;28;20203;-58
2021/12/28 00:41:11;;;;;;;78.03;44.77;;;;;;;7.25;100.00;96542.38;5081983;28;20216;-56
2021/12/28 00:43:39;;;;;;;84.07;45.43;;;;;;;7.29;100.00;96549.91;5068102;28;20218;-59
2021/12/28 00:46:07;;;;;;;80.90;44.27;;;;;;;7.26;100.00;96544.91;5066883;28;20200;-58
2021/12/28 00:48:36;;;;;;;76.37;42.30;;;;;;;7.28;100.00;96547.41;5085508;28;20208;-56
2021/12/28 00:51:04;;;;;;;80.23;43.10;;;;;;;7.32;99.83;96549.78;5087487;28;20789;-56
2021/12/28 00:53:32;;;;;;;72.57;40.80;;;;;;;7.25;99.58;96542.38;5087756;28;20192;-57
2021/12/28 00:55:59;;;;;;;71.00;38.50;;;;;;;7.25;99.37;96550.13;5080838;28;20209;-55
2021/12/28 00:58:28;;;;;;;71.10;40.13;;;;;;;7.21;98.71;96546.00;5066329;28;20193;-56
2021/12/28 01:00:55;;;;;;;89.90;43.07;;;;;;;7.32;97.92;96549.78;5066223;28;20215;-56
2021/12/28 01:03:23;;;;;;;104.67;43.53;;;;;;;7.19;97.81;96547.78;5067036;28;20281;-61
2021/12/28 01:05:51;;;;;;;95.87;42.97;;;;;;;7.11;99.20;96555.00;5067614;28;20200;-62
2021/12/28 01:08:18;;;;;;;91.27;46.60;;;;;;;6.99;98.26;96545.16;5066779;28;20336;-64
2021/12/28 01:10:51;;;;;;;101.90;47.93;;;;;;;6.90;98.72;96532.66;5067030;28;20209;-58
2021/12/28 01:13:19;;;;;;;103.60;49.77;;;;;;;6.90;98.79;96543.81;5067381;28;20582;-68
2021/12/28 01:15:47;;;;;;;142.67;50.77;;;;;;;6.84;98.57;96548.34;5066384;28;20719;-67
2021/12/28 01:18:14;;;;;;;180.57;48.80;;;;;;;6.71;100.00;96536.84;5067471;28;20220;-63
2021/12/28 01:20:42;;;;;;;173.37;48.03;;;;;;;6.79;100.00;96545.09;5085661;28;20191;-63
2021/12/28 01:23:10;;;;;;;149.27;44.73;;;;;;;6.71;100.00;96539.41;5087656;28;20194;-65
2021/12/28 01:25:37;;;;;;;143.20;42.43;;;;;;;6.70;100.00;96548.03;5087089;28;20199;-65
2021/12/28 01:28:05;;;;;;;128.60;44.80;;;;;;;6.73;100.00;96551.31;5087007;28;20721;-66
2021/12/28 01:30:33;;;;;;;130.47;43.73;;;;;;;6.71;100.00;96535.13;5078617;28;20256;-64
2021/12/28 01:33:01;;;;;;;152.83;44.23;;;;;;;6.75;100.00;96548.69;5084950;28;20200;-59
2021/12/28 01:35:30;;;;;;;115.77;40.57;;;;;;;6.75;100.00;96536.66;5087514;28;20746;-62
2021/12/28 01:37:58;;;;;;;125.03;42.77;;;;;;;6.84;100.00;96540.63;5074629;28;20239;-62
2021/12/28 01:40:28;;;;;;;134.00;43.23;;;;;;;6.75;100.00;96536.66;5087310;28;20708;-62
2021/12/28 01:43:08;;;;;;;132.83;41.03;;;;;;;6.77;100.00;96537.44;5087518;28;20207;-59
2021/12/28 01:45:47;;;;;;;112.17;43.30;;;;;;;6.85;100.00;96542.28;5086256;28;20198;-68
2021/12/28 01:48:18;;;;;;;122.67;41.87;;;;;;;6.86;100.00;96543.97;5087320;28;20249;-65
2021/12/28 01:50:46;;;;;;;88.93;40.37;;;;;;;6.85;100.00;96542.28;5086012;28;20241;-68
2021/12/28 01:53:14;;;;;;;127.80;42.27;;;;;;;6.90;100.00;96537.81;5086116;28;20201;-62
2021/12/28 01:55:45;;;;;;;140.30;40.80;;;;;;;6.85;100.00;96539.72;5086757;28;20195;-67
2021/12/28 01:58:13;;;;;;;186.27;41.77;;;;;;;6.83;100.00;96531.22;5086569;28;20198;-62
2021/12/28 02:00:43;;;;;;;213.43;42.07;;;;;;;6.84;100.00;96527.75;5087169;28;20753;-68
2021/12/28 02:03:13;;;;;;;167.63;38.90;;;;;;;6.83;100.00;96528.63;5086079;28;20705;-64
2021/12/28 02:05:40;;;;;;;85.03;36.10;;;;;;;6.89;100.00;96528.41;5085908;28;20283;-62
2021/12/28 02:08:09;;;;;;;122.60;37.50;;;;;;;6.98;100.00;96522.91;5077977;28;20648;-64
2021/12/28 02:10:37;;;;;;;124.23;34.63;;;;;;;6.92;100.00;96499.97;5070245;28;20211;-61
2021/12/28 02:13:06;;;;;;;115.00;32.03;;;;;;;6.97;100.00;96508.34;5081816;28;20230;-65
2021/12/28 02:15:35;;;;;;;77.70;33.77;;;;;;;6.92;100.00;96518.84;5070334;28;20248;-63
2021/12/28 02:18:04;;;;;;;91.03;33.87;;;;;;;6.88;100.00;96508.72;5070641;28;20189;-60
2021/12/28 02:20:32;;;;;;;77.43;31.13;;;;;;;6.76;100.00;96510.03;5069562;28;20200;-68
2021/12/28 02:22:59;;;;;;;66.27;32.17;;;;;;;6.74;100.00;96514.41;5071164;28;20204;-63
2021/12/28 02:25:26;;;;;;;63.33;32.70;;;;;;;6.87;100.00;96514.75;5069689;28;20208;-67
2021/12/28 02:27:53;;;;;;;61.63;31.33;;;;;;;6.86;100.00;96506.19;5070761;28;20225;-66
2021/12/28 02:30:21;;;;;;;51.40;28.93;;;;;;;6.93;100.00;96510.22;5070147;28;20613;-68
2021/12/28 02:32:49;;;;;;;59.47;26.57;;;;;;;6.95;100.00;96510.13;5070130;28;20199;-60
2021/12/28 02:35:20;;;;;;;53.93;26.00;;;;;;;6.88;100.00;96513.88;5070497;28;20215;-64
2021/12/28 02:37:48;;;;;;;45.47;24.73;;;;;;;6.83;100.00;96513.19;5069365;28;20731;-59
2021/12/28 02:40:29;;;;;;;51.63;25.03;;;;;;;6.89;100.00;96513.81;5070802;28;20581;-68
2021/12/28 02:42:58;;;;;;;49.50;26.83;;;;;;;6.80;100.00;96503.03;5069867;28;20583;-66
2021/12/28 02:45:31;;;;;;;48.67;29.40;;;;;;;6.87;100.00;96514.75;5070117;28;20724;-61
2021/12/28 02:47:59;;;;;;;59.40;31.30;;;;;;;6.87;100.00;96509.59;5070053;28;20270;-65
2021/12/28 02:50:30;;;;;;;68.57;33.27;;;;;;;6.88;100.00;96511.28;5069636;28;20245;-59
2021/12/28 02:52:58;;;;;;;66.60;31.03;;;;;;;6.82;100.00;96519.25;5070704;28;20711;-61
2021/12/28 02:55:28;;;;;;;87.20;31.73;;;;;;;6.67;100.00;96523.28;5069169;28;20541;-67
2021/12/28 02:58:04;;;;;;;77.53;35.93;;;;;;;6.55;100.00;96511.69;5070207;28;20212;-65
2021/12/28 03:00:53;;;;;;;73.17;37.53;;;;;;;6.64;100.00;96533.66;5069678;28;20584;-64
2021/12/28 03:03:24;;;;;;;89.93;38.33;;;;;;;6.58;100.00;96514.16;5067946;28;20261;-58
2021/12/28 03:05:53;;;;;;;110.77;40.90;;;;;;;6.55;100.00;96521.97;5070223;28;20193;-56
2021/12/28 03:08:24;;;;;;;101.67;41.53;;;;;;;6.48;100.00;96535.16;5068797;28;20233;-56
2021/12/28 03:10:53;;;;;;;116.43;40.87;;;;;;;6.42;100.00;96528.50;5070344;28;20207;-56
2021/12/28 03:13:24;;;;;;;99.83;42.70;;;;;;;6.40;100.00;96522.59;5069139;28;20207;-55
2021/12/28 03:15:52;;;;;;;108.73;40.50;;;;;;;6.45;100.00;96523.25;5069889;28;20192;-67
2021/12/28 03:18:21;;;;;;;110.30;41.30;;;;;;;6.47;100.00;96523.19;5070495;28;20261;-66
2021/12/28 03:20:49;;;;;;;78.67;39.50;;;;;;;6.50;100.00;96520.50;5069850;28;20191;-67
2021/12/28 03:23:19;;;;;;;59.20;34.67;;;;;;;6.61;100.00;96512.38;5069561;28;20202;-65
2021/12/28 03:25:46;;;;;;;69.83;37.23;;;;;;;6.72;100.00;96517.94;5087765;28;20727;-67
2021/12/28 03:28:21;;;;;;;65.10;37.57;;;;;;;6.11;100.00;96412.31;5089831;28;20278;-55
2021/12/28 03:30:50;;;;;;;63.53;35.00;;;;;;;6.69;100.00;96528.34;5078464;28;20671;-55
2021/12/28 03:33:17;;;;;;;63.37;35.07;;;;;;;6.62;100.00;96514.03;5070231;28;20734;-55
2021/12/28 03:35:43;;;;;;;67.10;38.13;;;;;;;6.70;100.00;96528.28;5089982;28;20256;-62
2021/12/28 03:38:10;;;;;;;66.43;37.73;;;;;;;6.72;100.00;96529.06;5088830;28;20235;-60
2021/12/28 03:40:39;;;;;;;57.57;35.00;;;;;;;6.76;99.01;96532.38;5091444;28;20673;-63
2021/12/28 03:43:07;;;;;;;62.27;36.17;;;;;;;6.67;99.05;96528.41;5089387;28;20200;-58
2021/12/28 03:45:34;;;;;;;55.70;35.23;;;;;;;6.68;99.33;96534.41;5095761;28;20210;-64
2021/12/28 03:48:01;;;;;;;54.43;33.10;;;;;;;6.66;98.76;96536.19;5096168;28;20228;-67
2021/12/28 03:50:28;;;;;;;47.57;30.67;;;;;;;6.69;97.82;96525.78;5100140;28;20200;-60
2021/12/28 03:52:56;;;;;;;47.10;29.80;;;;;;;6.66;98.11;96519.00;5100739;28;20589;-59
2021/12/28 03:55:24;;;;;;;52.67;31.40;;;;;;;6.66;98.05;96521.56;5100353;28;20195;-62
2021/12/28 03:57:53;;;;;;;81.53;31.50;;;;;;;6.53;97.64;96526.34;5095927;28;20200;-63
2021/12/28 04:00:22;;;;;;;68.30;33.87;;;;;;;6.31;98.74;96520.34;5088556;28;20214;-63
2021/12/28 04:02:49;;;;;;;86.50;36.33;;;;;;;6.30;99.10;96531.53;5089281;28;20589;-67
2021/12/28 04:05:17;;;;;;;110.57;40.37;;;;;;;6.12;99.46;96515.97;5088779;28;20691;-60
2021/12/28 04:07:45;;;;;;;90.30;41.00;;;;;;;6.17;99.63;96532.88;5088471;28;21121;-62
2021/12/28 04:10:15;;;;;;;98.80;42.73;;;;;;;5.94;99.67;96508.91;5089045;28;20205;-61
2021/12/28 04:12:43;;;;;;;92.83;43.07;;;;;;;5.97;100.00;96530.19;5088040;28;20231;-58
2021/12/28 04:15:14;;;;;;;74.20;41.07;;;;;;;5.94;100.00;96525.16;5089158;28;20196;-65
2021/12/28 04:17:41;;;;;;;79.97;39.80;;;;;;;6.01;100.00;96533.50;5087794;28;20291;-65
2021/12/28 04:20:12;;;;;;;78.27;39.53;;;;;;;5.99;100.00;96523.28;5088821;28;20311;-64
2021/12/28 04:22:40;;;;;;;91.23;40.27;;;;;;;6.15;100.00;96529.53;5088443;28;20202;-61
2021/12/28 04:25:09;;;;;;;76.90;39.80;;;;;;;6.07;99.67;96521.25;5086987;28;20183;-65
2021/12/28 04:27:36;;;;;;;59.30;34.67;;;;;;;6.22;100.00;96533.53;5088752;28;20318;-66
2021/12/28 04:30:06;;;;;;;58.50;32.83;;;;;;;6.30;98.76;96539.25;5087369;28;20679;-66
2021/12/28 04:32:33;;;;;;;47.50;30.60;;;;;;;6.30;98.57;96538.41;5088673;28;20293;-60
2021/12/28 04:35:00;;;;;;;45.43;27.33;;;;;;;6.31;97.95;96540.06;5087543;28;20196;-63
2021/12/28 04:37:31;;;;;;;45.60;26.87;;;;;;;6.21;97.19;96534.44;5088219;28;20706;-64
2021/12/28 04:39:58;;;;;;;40.33;25.10;;;;;;;6.11;97.91;96548.53;5087101;28;20195;-64
2021/12/28 04:42:27;;;;;;;36.50;22.80;;;;;;;6.04;97.46;96557.34;5087704;28;20198;-62
2021/12/28 04:44:54;;;;;;;36.07;21.03;;;;;;;5.98;97.41;96549.84;5088651;28;20567;-62
2021/12/28 04:47:22;;;;;;;34.63;21.03;;;;;;;6.03;97.76;96558.25;5087350;28;20732;-67
2021/12/28 04:49:49;;;;;;;32.97;20.80;;;;;;;5.94;98.69;96545.72;5088635;28;20200;-63
2021/12/28 04:52:16;;;;;;;33.23;20.97;;;;;;;5.88;97.63;96556.22;5087487;28;20694;-67
2021/12/28 04:54:44;;;;;;;31.87;21.13;;;;;;;5.74;99.61;96555.81;5088240;28;20186;-61
2021/12/28 04:57:11;;;;;;;28.03;18.87;;;;;;;5.72;100.00;96560.19;5087698;28;20571;-66
2021/12/28 04:59:38;;;;;;;28.97;19.37;;;;;;;5.74;99.63;96556.69;5087510;28;20193;-65
2021/12/28 05:02:05;;;;;;;31.50;20.20;;;;;;;5.72;100.00;96555.03;5087029;28;20203;-67
2021/12/28 05:04:32;;;;;;;32.80;20.83;;;;;;;5.72;100.00;96555.88;5087025;28;20248;-63
2021/12/28 05:06:59;;;;;;;33.17;21.50;;;;;;;5.83;100.00;96570.94;5087538;28;20197;-56
2021/12/28 05:09:26;;;;;;;31.60;20.37;;;;;;;5.90;99.80;96559.56;5086942;28;20225;-63
2021/12/28 05:11:53;;;;;;;34.00;20.80;;;;;;;5.77;100.00;96560.84;5087681;28;20194;-63
2021/12/28 05:14:21;;;;;;;36.03;23.57;;;;;;;5.78;100.00;96549.69;5087412;28;20202;-60
2021/12/28 05:16:48;;;;;;;40.27;23.30;;;;;;;5.69;100.00;96539.72;5087330;28;20194;-64
2021/12/28 05:19:15;;;;;;;38.27;24.13;;;;;;;5.78;100.00;96554.81;5086587;28;20250;-60
2021/12/28 05:21:43;;;;;;;35.57;22.53;;;;;;;5.68;100.00;96544.03;5086493;28;20201;-58
2021/12/28 05:24:11;;;;;;;36.50;22.47;;;;;;;5.89;100.00;96557.91;5087738;28;20205;-59
2021/12/28 05:26:38;;;;;;;41.77;25.70;;;;;;;5.91;100.00;96556.13;5086809;28;20574;-57
2021/12/28 05:29:05;;;;;;;51.50;29.03;;;;;;;5.85;100.00;96548.63;5087595;28;20228;-59
2021/12/28 05:31:32;;;;;;;42.73;25.17;;;;;;;5.91;100.00;96561.25;5085805;28;20194;-63
2021/12/28 05:33:59;;;;;;;47.10;26.23;;;;;;;5.92;100.00;96562.91;5087382;28;20576;-58
2021/12/28 05:36:27;;;;;;;47.30;29.50;;;;;;;5.93;100.00;96562.03;5087239;28;20203;-59
2021/12/28 05:38:54;;;;;;;45.03;27.70;;;;;;;6.01;100.00;96562.59;5086203;28;20580;-66
2021/12/28 05:41:21;;;;;;;42.60;26.43;;;;;;;6.12;100.00;96565.63;5086020;28;20213;-58
2021/12/28 05:43:48;;;;;;;45.13;26.03;;;;;;;6.18;100.00;96567.16;5086881;28;20350;-61
2021/12/28 05:46:16;;;;;;;37.67;23.30;;;;;;;6.24;100.00;96565.19;5087063;28;20515;-57
2021/12/28 05:48:43;;;;;;;38.33;23.53;;;;;;;6.30;100.00;96564.97;5086292;28;20230;-61
2021/12/28 05:51:10;;;;;;;38.70;24.27;;;;;;;6.33;100.00;96564.00;5086979;28;20585;-57
2021/12/28 05:53:37;;;;;;;38.53;24.80;;;;;;;6.39;99.33;96572.31;5087163;28;20232;-60
2021/12/28 05:56:04;;;;;;;36.03;23.07;;;;;;;6.43;98.82;96568.75;5086195;28;20195;-62
2021/12/28 05:58:32;;;;;;;41.27;24.73;;;;;;;6.48;98.67;96573.72;5087062;28;20206;-56
2021/12/28 06:00:59;;;;;;;40.67;26.57;;;;;;;6.45;98.26;96553.28;5086228;28;20710;-58
2021/12/28 06:03:26;;;;;;;42.50;26.37;;;;;;;6.34;97.76;96548.53;5085335;28;20196;-57
2021/12/28 06:05:53;;;;;;;42.50;26.53;;;;;;;6.40;98.94;96581.75;5075478;28;20207;-58
2021/12/28 06:08:21;;;;;;;43.60;27.63;;;;;;;6.42;97.94;96579.09;5077728;28;20232;-56
2021/12/28 06:11:03;;;;;;;41.10;26.77;;;;;;;6.43;98.80;96583.34;5065298;28;20736;-57
2021/12/28 06:13:31;;;;;;;39.40;26.07;;;;;;;6.39;98.97;96579.19;5079808;28;20234;-57
2021/12/28 06:15:59;;;;;;;44.60;29.73;;;;;;;6.41;99.15;96588.53;5086609;28;20203;-57
2021/12/28 06:18:26;;;;;;;40.70;27.43;;;;;;;6.60;98.11;96591.28;5085095;28;20205;-64
2021/12/28 06:20:53;;;;;;;31.77;22.03;;;;;;;6.61;97.80;96594.69;5083570;28;20202;-56
2021/12/28 06:23:20;;;;;;;38.37;24.10;;;;;;;6.54;98.12;96602.63;5085429;28;20200;-58
2021/12/28 06:25:47;;;;;;;39.67;26.17;;;;;;;6.58;97.40;96606.78;5085596;28;20274;-62
2021/12/28 06:28:15;;;;;;;50.73;30.93;;;;;;;6.44;98.21;96609.00;5083306;28;20218;-56
2021/12/28 06:30:42;;;;;;;39.87;25.43;;;;;;;6.24;99.61;96601.19;5085021;28;20195;-56
2021/12/28 06:33:09;;;;;;;41.63;24.87;;;;;;;6.22;100.00;96597.81;5085874;28;20637;-57
2021/12/28 06:35:37;;;;;;;41.27;24.27;;;;;;;6.26;99.33;96613.97;5083871;28;20839;-59
2021/12/28 06:38:04;;;;;;;34.13;22.27;;;;;;;6.15;100.00;96598.94;5085523;28;20227;-57
2021/12/28 06:40:31;;;;;;;29.67;19.67;;;;;;;6.23;100.00;96609.78;5085113;28;20227;-59
2021/12/28 06:42:58;;;;;;;31.63;19.67;;;;;;;6.15;99.10;96619.50;5085821;28;20622;-56
2021/12/28 06:45:26;;;;;;;32.97;21.73;;;;;;;6.01;100.00;96603.72;5085764;28;20200;-57
2021/12/28 06:47:53;;;;;;;32.87;21.53;;;;;;;6.03;100.00;96622.50;5081897;28;20196;-61
2021/12/28 06:50:20;;;;;;;32.67;18.63;;;;;;;6.00;100.00;96621.75;5085747;28;20272;-57
2021/12/28 06:52:47;;;;;;;35.43;21.30;;;;;;;6.01;100.00;96626.84;5084561;28;20194;-57
2021/12/28 06:55:14;;;;;;;34.73;20.57;;;;;;;5.91;100.00;96620.34;5082928;28;20203;-56
2021/12/28 06:57:41;;;;;;;26.73;17.47;;;;;;;5.96;100.00;96615.88;5084815;28;20634;-61
2021/12/28 07:00:12;;;;;;;34.13;21.30;;;;;;;6.01;100.00;96626.00;5089233;28;20205;-67
2021/12/28 07:02:39;;;;;;;34.43;20.40;;;;;;;6.03;100.00;96622.50;5089603;28;20308;-68
2021/12/28 07:05:07;;;;;;;31.27;20.03;;;;;;;6.12;100.00;96622.16;5088733;28;20203;-65
2021/12/28 07:07:35;;;;;;;26.53;18.37;;;;;;;6.12;100.00;96619.59;5089974;28;20287;-67
2021/12/28 07:10:03;;;;;;;31.10;19.97;;;;;;;6.27;100.00;96619.06;5088919;28;20288;-58
2021/12/28 07:12:30;;;;;;;34.20;21.37;;;;;;;6.26;100.00;96614.81;5089828;28;20194;-61
2021/12/28 07:14:57;;;;;;;38.03;23.77;;;;;;;6.30;100.00;96613.81;5087484;28;20195;-58
2021/12/28 07:17:26;;;;;;;37.40;23.27;;;;;;;6.31;100.00;96600.06;5089763;28;20221;-63
2021/12/28 07:19:54;;;;;;;35.07;21.97;;;;;;;6.42;100.00;96608.22;5089997;28;20199;-63
2021/12/28 07:22:21;;;;;;;36.90;23.40;;;;;;;6.49;100.00;96601.94;5089898;28;20213;-57
2021/12/28 07:24:49;;;;;;;38.93;25.97;;;;;;;6.60;99.76;96604.13;5088087;28;20206;-57
2021/12/28 07:27:15;;;;;;;46.00;31.23;;;;;;;6.65;99.78;96604.81;5088614;28;20688;-58
2021/12/28 07:29:42;;;;;;;61.80;34.03;;;;;;;6.66;98.70;96600.50;5089536;28;20227;-56
2021/12/28 07:32:10;;;;;;;51.07;32.50;;;;;;;6.86;98.12;96608.31;5088536;28;20199;-59
2021/12/28 07:34:37;;;;;;;50.70;33.03;;;;;;;7.01;98.53;96605.97;5089203;28;20579;-56
2021/12/28 07:37:04;;;;;;;43.43;28.97;;;;;;;7.06;98.45;96613.53;5089067;28;20740;-59
2021/12/28 07:39:31;;;;;;;46.23;30.30;;;;;;;7.16;96.87;96601.97;5078774;28;20216;-58
2021/12/28 07:41:58;;;;;;;52.13;32.60;;;;;;;7.13;96.90;96600.34;5069447;28;20199;-59
2021/12/28 07:44:26;;;;;;;46.47;30.57;;;;;;;7.23;97.09;96596.50;5067668;28;20294;-56
2021/12/28 07:46:53;;;;;;;50.43;31.97;;;;;;;7.42;97.12;96596.59;5072395;28;20211;-57
2021/12/28 07:49:21;;;;;;;48.77;33.27;;;;;;;7.28;95.85;96548.25;5088300;28;20248;-65
2021/12/28 07:51:50;;;;;;;41.27;28.13;;;;;;;7.75;95.14;96600.38;5088172;28;20337;-56
2021/12/28 07:54:17;;;;;;;38.63;27.37;;;;;;;7.82;94.12;96604.38;5079159;28;20586;-57
2021/12/28 07:56:44;;;;;;;42.27;28.03;;;;;;;7.95;93.48;96597.81;5088535;28;20723;-56
2021/12/28 07:59:11;;;;;;;45.53;30.63;;;;;;;8.02;93.38;96591.47;5089352;28;20188;-61
2021/12/28 08:01:40;;;;;;;39.30;29.07;;;;;;;8.08;93.08;96601.53;5087318;28;20599;-62
2021/12/28 08:04:08;;;;;;;41.97;30.07;;;;;;;8.11;93.10;96600.56;5088858;28;20234;-65
2021/12/28 08:06:35;;;;;;;41.47;25.87;;;;;;;8.12;92.77;96604.81;5088111;28;20188;-64
2021/12/28 08:09:03;;;;;;;38.40;27.23;;;;;;;8.17;92.46;96597.72;5088154;28;20289;-60
2021/12/28 08:11:36;;;;;;;43.33;27.53;;;;;;;8.22;93.39;96596.63;5088230;28;20200;-65
2021/12/28 08:14:04;;;;;;;43.17;29.90;;;;;;;8.35;92.43;96593.53;5083817;28;20268;-58
2021/12/28 08:16:31;;;;;;;43.87;28.20;;;;;;;8.36;92.30;96590.06;5077829;28;20193;-56
2021/12/28 08:18:59;;;;;;;39.67;26.70;;;;;;;8.39;92.09;96592.50;5085428;28;20208;-65
2021/12/28 08:21:46;;;;;;;42.00;28.97;;;;;;;8.38;92.57;96591.66;5088294;28;20702;-61
2021/12/28 08:24:13;;;;;;;40.50;27.90;;;;;;;8.46;92.20;96593.91;5086971;28;20211;-55
2021/12/28 08:26:41;;;;;;;42.27;28.03;;;;;;;8.62;92.32;96589.72;5087818;28;20192;-58
2021/12/28 08:29:08;;;;;;;36.93;26.57;;;;;;;8.67;92.03;96595.53;5088500;28;20250;-58
2021/12/28 08:31:35;;;;;;;31.97;22.10;;;;;;;8.88;91.85;96592.78;5086014;28;20199;-56
2021/12/28 08:34:03;;;;;;;28.77;19.53;;;;;;;8.89;91.26;96589.31;5088472;28;20663;-58
2021/12/28 08:36:30;;;;;;;28.33;19.57;;;;;;;8.97;90.97;96576.88;5086737;28;20184;-59
2021/12/28 08:38:58;;;;;;;29.90;20.70;;;;;;;9.05;90.53;96589.41;5088019;28;20675;-58
2021/12/28 08:41:26;;;;;;;43.03;27.57;;;;;;;9.03;90.12;96584.34;5082324;28;20244;-56
2021/12/28 08:43:53;;;;;;;35.87;26.40;;;;;;;9.05;90.42;96586.84;5078554;28;20284;-56
2021/12/28 08:46:20;;;;;;;33.77;24.03;;;;;;;9.09;90.84;96578.03;5069275;28;20295;-61
2021/12/28 08:48:47;;;;;;;40.77;28.03;;;;;;;9.09;90.28;96577.22;5085144;28;20323;-63
2021/12/28 08:51:15;;;;;;;36.90;25.77;;;;;;;9.19;89.71;96573.28;5087696;28;20197;-57
2021/12/28 08:53:42;;;;;;;37.57;24.97;;;;;;;9.16;90.23;96569.09;5086694;28;20201;-56
2021/12/28 08:56:10;;;;;;;27.00;18.53;;;;;;;9.15;89.82;96569.19;5087636;28;20706;-66
2021/12/28 08:58:37;;;;;;;29.07;19.60;;;;;;;9.39;90.13;96576.59;5080539;28;20235;-59
2021/12/28 09:01:04;;;;;;;25.07;18.10;;;;;;;9.37;89.73;96565.47;5071917;28;20200;-57
2021/12/28 09:03:34;;;;;;;38.47;23.07;;;;;;;9.64;89.35;96571.03;5065537;28;20270;-56
2021/12/28 09:06:02;;;;;;;25.20;19.23;;;;;;;9.70;89.38;96569.00;5065856;28;20202;-55
2021/12/28 09:08:29;;;;;;;26.00;18.43;;;;;;;9.75;89.47;96569.59;5070285;28;20185;-58
2021/12/28 09:10:56;;;;;;;22.93;15.90;;;;;;;9.71;88.80;96560.31;5080954;28;20205;-58
2021/12/28 09:13:24;;;;;;;27.53;17.43;;;;;;;9.75;89.40;96564.41;5087393;28;20618;-63
2021/12/28 09:15:51;;;;;;;24.87;18.10;;;;;;;9.84;89.85;96566.56;5083208;28;20638;-57
2021/12/28 09:18:18;;;;;;;21.73;16.93;;;;;;;9.90;90.01;96567.13;5071018;28;20208;-58
2021/12/28 09:20:45;;;;;;;17.77;12.80;;;;;;;9.79;89.07;96563.34;5085953;28;20619;-56
2021/12/28 09:23:13;;;;;;;16.23;11.20;;;;;;;9.79;89.46;96563.34;5079072;28;20200;-59
2021/12/28 09:25:41;;;;;;;15.60;11.77;;;;;;;9.87;89.30;96556.97;5065469;28;20551;-56
2021/12/28 09:28:10;;;;;;;16.67;10.87;;;;;;;9.88;89.63;96558.63;5065553;28;20388;-59
2021/12/28 09:30:38;;;;;;;19.50;14.33;;;;;;;9.98;90.35;96557.25;5072081;28;20227;-57
2021/12/28 09:33:06;;;;;;;11.37;8.20;;;;;;;10.00;88.37;96558.00;5079204;28;20208;-67
2021/12/28 09:35:33;;;;;;;11.00;7.93;;;;;;;9.99;88.42;96557.19;5066080;28;20189;-63
2021/12/28 09:38:00;;;;;;;10.27;8.37;;;;;;;10.11;88.16;96559.16;5066456;28;20247;-57
2021/12/28 09:40:34;;;;;;;10.63;7.47;;;;;;;10.34;88.28;96556.22;5064005;28;20215;-57
2021/12/28 09:43:04;;;;;;;9.33;7.33;;;;;;;10.44;87.27;96551.41;5066050;28;20209;-60
2021/12/28 09:45:33;;;;;;;10.53;7.97;;;;;;;10.54;87.05;96549.97;5077632;28;20207;-61
2021/12/28 09:48:01;;;;;;;14.50;10.53;;;;;;;10.67;86.69;96537.22;5070813;28;20193;-57
2021/12/28 09:50:29;;;;;;;8.90;7.13;;;;;;;10.78;85.61;96533.13;5078358;28;20328;-59
2021/12/28 09:52:56;;;;;;;10.50;7.37;;;;;;;10.85;85.19;96523.25;5075054;28;20266;-59
2021/12/28 09:55:28;;;;;;;13.17;8.70;;;;;;;10.99;83.80;96521.56;5081337;28;20240;-64
2021/12/28 09:57:58;;;;;;;13.27;7.87;;;;;;;11.16;85.06;96520.63;5080858;28;20297;-58
2021/12/28 10:00:27;;;;;;;11.40;8.47;;;;;;;11.36;83.83;96518.59;5064657;28;20216;-55
2021/12/28 10:03:13;;;;;;;10.50;7.90;;;;;;;11.56;81.90;96522.63;5085189;28;20208;-60
2021/12/28 10:05:42;;;;;;;11.37;7.80;;;;;;;11.52;81.08;96526.31;5085905;28;20200;-57
2021/12/28 10:08:09;;;;;;;6.67;6.00;;;;;;;11.64;80.39;96517.00;5086297;28;20539;-56
2021/12/28 10:10:39;;;;;;;11.20;7.20;;;;;;;11.70;80.67;96521.88;5100861;28;20228;-58
2021/12/28 10:13:10;;;;;;;8.50;6.90;;;;;;;11.57;79.96;96510.50;5086391;28;20211;-59
2021/12/28 10:15:40;;;;;;;8.37;6.17;;;;;;;11.70;80.53;96516.69;5084813;28;20209;-60
2021/12/28 10:18:10;;;;;;;7.63;5.77;;;;;;;11.78;80.42;96517.06;5101124;28;20205;-58
2021/12/28 10:20:42;;;;;;;10.60;7.20;;;;;;;11.99;79.05;96508.00;5083527;28;20262;-61
2021/12/28 10:23:13;;;;;;;10.00;7.57;;;;;;;11.95;79.95;96501.34;5083272;28;20523;-57
2021/12/28 10:25:48;;;;;;;14.97;7.93;;;;;;;11.97;79.15;96489.91;5075032;28;20211;-57
2021/12/28 10:28:25;;;;;;;11.30;7.63;;;;;;;11.83;79.34;96465.75;5084090;28;20203;-58
2021/12/28 10:30:56;;;;;;;11.13;7.80;;;;;;;12.06;79.11;96488.53;5086160;28;20277;-60
2021/12/28 10:33:27;;;;;;;12.40;8.13;;;;;;;12.15;78.50;96493.19;5084949;28;20214;-61
2021/12/28 10:36:01;;;;;;;13.60;9.93;;;;;;;12.26;78.22;96486.41;5075522;28;20426;-59
2021/12/28 10:38:32;;;;;;;13.37;9.97;;;;;;;12.20;77.51;96476.38;5079961;28;20232;-63
2021/12/28 10:41:07;;;;;;;10.53;8.83;;;;;;;12.23;78.19;96470.19;5068137;28;20214;-58
2021/12/28 10:43:38;;;;;;;17.20;11.90;;;;;;;12.33;77.50;96473.88;5070307;28;20200;-67
2021/12/28 10:46:12;;;;;;;13.53;8.63;;;;;;;12.35;76.76;96477.22;5067569;28;20192;-59
2021/12/28 10:48:46;;;;;;;13.27;9.10;;;;;;;12.41;76.41;96474.22;5069922;28;20238;-64
2021/12/28 10:51:21;;;;;;;13.73;10.03;;;;;;;12.48;76.09;96478.13;5076276;28;20217;-63
2021/12/28 10:54:36;;;;;;;17.57;12.53;;;;;;;12.53;76.15;96477.84;5077642;28;20976;-67
2021/12/28 10:56:52;;;;;;;26.00;17.03;;;;;;;12.51;75.07;96477.94;5085219;28;20730;-59
2021/12/28 10:59:31;;;;;;;28.97;17.00;;;;;;;12.49;74.21;96469.41;5088506;28;20202;-63
2021/12/28 11:01:58;;;;;;;24.87;15.90;;;;;;;12.45;73.85;96460.13;5084000;28;20212;-57
2021/12/28 11:04:34;;;;;;;22.53;14.07;;;;;;;12.38;74.56;96473.59;5071812;28;20704;-59
2021/12/28 11:07:05;;;;;;;17.43;11.17;;;;;;;12.39;74.03;96468.31;5068006;28;20224;-56
2021/12/28 11:09:32;;;;;;;12.43;9.90;;;;;;;12.29;73.48;96472.41;5080059;28;20235;-63
2021/12/28 11:11:59;;;;;;;17.80;12.00;;;;;;;12.26;73.52;96468.22;5087464;28;20686;-59
2021/12/28 11:14:29;;;;;;;19.73;12.10;;;;;;;12.25;74.54;96469.16;5086271;28;20526;-60
2021/12/28 11:17:02;;;;;;;15.23;9.70;;;;;;;12.30;74.22;96466.28;5069157;28;20693;-63
2021/12/28 11:19:38;;;;;;;14.50;10.03;;;;;;;12.30;73.98;96466.28;5067843;28;20235;-61
2021/12/28 11:22:08;;;;;;;19.27;13.10;;;;;;;12.36;74.54;96468.50;5068624;28;20286;-64
2021/12/28 11:24:39;;;;;;;14.13;10.20;;;;;;;12.43;75.06;96467.19;5066508;28;20658;-59
2021/12/28 11:27:10;;;;;;;10.90;8.33;;;;;;;12.39;75.16;96465.72;5068745;28;20201;-60
2021/12/28 11:29:57;;;;;;;13.57;9.67;;;;;;;12.34;75.40;96454.78;5068503;28;20227;-66
2021/12/28 11:32:24;;;;;;;11.97;8.27;;;;;;;12.42;74.68;96454.31;5068430;28;20200;-63